sensor_id;sensor_type;location;lat;lon;timestamp;P1;durP1;ratioP1;P2;durP2;ratioP2
6007;SDS011;3032;49.484;11.112;2023-04-15T00:01:29;9.25;;;8.35;;
6007;SDS011;3032;49.484;11.112;2023-04-15T00:03:58;10.05;;;9.10;;
6007;SDS011;3032;49.484;11.112;2023-04-15T00:06:23;13.50;;;9.40;;
6007;SDS011;3032;49.484;11.112;2023-04-15T00:08:50;10.63;;;8.65;;
6007;SDS011;3032;49.484;11.112;2023-04-15T00:11:16;9.00;;;8.10;;
6007;SDS011;3032;49.484;11.112;2023-04-15T00:13:42;9.77;;;8.77;;
6007;SDS011;3032;49.484;11.112;2023-04-15T00:16:08;13.93;;;10.10;;
6007;SDS011;3032;49.484;11.112;2023-04-15T00:18:34;10.15;;;9.07;;
6007;SDS011;3032;49.484;11.112;2023-04-15T00:21:00;10.90;;;8.90;;
6007;SDS011;3032;49.484;11.112;2023-04-15T00:23:26;10.60;;;9.10;;
6007;SDS011;3032;49.484;11.112;2023-04-15T00:25:52;12.43;;;9.37;;
6007;SDS011;3032;49.484;11.112;2023-04-15T00:28:18;10.67;;;9.63;;
6007;SDS011;3032;49.484;11.112;2023-04-15T00:30:43;9.90;;;8.90;;
6007;SDS011;3032;49.484;11.112;2023-04-15T00:33:09;10.68;;;8.35;;
6007;SDS011;3032;49.484;11.112;2023-04-15T00:35:37;9.80;;;8.80;;
6007;SDS011;3032;49.484;11.112;2023-04-15T00:38:05;9.80;;;8.80;;
6007;SDS011;3032;49.484;11.112;2023-04-15T00:40:34;9.27;;;8.48;;
6007;SDS011;3032;49.484;11.112;2023-04-15T00:43:00;8.80;;;8.00;;
6007;SDS011;3032;49.484;11.112;2023-04-15T00:45:26;9.63;;;8.63;;
6007;SDS011;3032;49.484;11.112;2023-04-15T00:47:52;10.85;;;8.40;;
6007;SDS011;3032;49.484;11.112;2023-04-15T00:50:18;10.10;;;7.93;;
6007;SDS011;3032;49.484;11.112;2023-04-15T00:52:44;9.30;;;8.40;;
6007;SDS011;3032;49.484;11.112;2023-04-15T00:55:09;9.77;;;8.27;;
6007;SDS011;3032;49.484;11.112;2023-04-15T00:57:35;9.97;;;8.93;;
6007;SDS011;3032;49.484;11.112;2023-04-15T01:00:02;8.20;;;7.50;;
6007;SDS011;3032;49.484;11.112;2023-04-15T01:02:29;9.90;;;8.60;;
6007;SDS011;3032;49.484;11.112;2023-04-15T01:04:56;9.35;;;8.45;;
6007;SDS011;3032;49.484;11.112;2023-04-15T01:07:22;10.27;;;8.23;;
6007;SDS011;3032;49.484;11.112;2023-04-15T01:09:47;9.37;;;8.17;;
6007;SDS011;3032;49.484;11.112;2023-04-15T01:12:13;11.33;;;8.60;;
6007;SDS011;3032;49.484;11.112;2023-04-15T01:14:41;9.15;;;8.32;;
6007;SDS011;3032;49.484;11.112;2023-04-15T01:17:06;9.37;;;8.37;;
6007;SDS011;3032;49.484;11.112;2023-04-15T01:19:35;9.48;;;7.80;;
6007;SDS011;3032;49.484;11.112;2023-04-15T01:22:01;10.20;;;9.10;;
6007;SDS011;3032;49.484;11.112;2023-04-15T01:24:27;9.07;;;7.85;;
6007;SDS011;3032;49.484;11.112;2023-04-15T01:26:55;14.43;;;8.50;;
6007;SDS011;3032;49.484;11.112;2023-04-15T01:29:21;10.50;;;8.20;;
6007;SDS011;3032;49.484;11.112;2023-04-15T01:31:50;13.30;;;7.47;;
6007;SDS011;3032;49.484;11.112;2023-04-15T01:34:17;8.48;;;7.50;;
6007;SDS011;3032;49.484;11.112;2023-04-15T01:36:43;8.35;;;7.55;;
6007;SDS011;3032;49.484;11.112;2023-04-15T01:39:09;7.73;;;7.00;;
6007;SDS011;3032;49.484;11.112;2023-04-15T01:41:34;7.73;;;7.03;;
6007;SDS011;3032;49.484;11.112;2023-04-15T01:44:00;8.00;;;7.20;;
6007;SDS011;3032;49.484;11.112;2023-04-15T01:46:26;8.93;;;8.03;;
6007;SDS011;3032;49.484;11.112;2023-04-15T01:48:51;8.70;;;7.90;;
6007;SDS011;3032;49.484;11.112;2023-04-15T01:51:17;10.27;;;7.90;;
6007;SDS011;3032;49.484;11.112;2023-04-15T01:53:43;9.10;;;8.20;;
6007;SDS011;3032;49.484;11.112;2023-04-15T01:56:08;8.63;;;7.73;;
6007;SDS011;3032;49.484;11.112;2023-04-15T01:58:34;9.13;;;7.63;;
6007;SDS011;3032;49.484;11.112;2023-04-15T02:01:00;9.90;;;7.87;;
6007;SDS011;3032;49.484;11.112;2023-04-15T02:03:27;8.25;;;7.50;;
6007;SDS011;3032;49.484;11.112;2023-04-15T02:05:53;9.35;;;7.10;;
6007;SDS011;3032;49.484;11.112;2023-04-15T02:08:19;9.40;;;8.50;;
6007;SDS011;3032;49.484;11.112;2023-04-15T02:10:44;8.70;;;7.90;;
6007;SDS011;3032;49.484;11.112;2023-04-15T02:13:10;8.20;;;7.25;;
6007;SDS011;3032;49.484;11.112;2023-04-15T02:15:36;8.70;;;7.80;;
6007;SDS011;3032;49.484;11.112;2023-04-15T02:18:01;12.90;;;8.50;;
6007;SDS011;3032;49.484;11.112;2023-04-15T02:20:28;11.30;;;8.38;;
6007;SDS011;3032;49.484;11.112;2023-04-15T02:22:54;9.63;;;8.70;;
6007;SDS011;3032;49.484;11.112;2023-04-15T02:25:21;8.68;;;7.63;;
6007;SDS011;3032;49.484;11.112;2023-04-15T02:27:46;8.50;;;7.70;;
6007;SDS011;3032;49.484;11.112;2023-04-15T02:30:12;9.47;;;8.57;;
6007;SDS011;3032;49.484;11.112;2023-04-15T02:32:38;9.47;;;8.47;;
6007;SDS011;3032;49.484;11.112;2023-04-15T02:35:07;12.52;;;9.10;;
6007;SDS011;3032;49.484;11.112;2023-04-15T02:37:34;9.37;;;8.30;;
6007;SDS011;3032;49.484;11.112;2023-04-15T02:40:06;10.30;;;8.80;;
6007;SDS011;3032;49.484;11.112;2023-04-15T02:42:33;14.50;;;9.93;;
6007;SDS011;3032;49.484;11.112;2023-04-15T02:44:58;10.37;;;8.93;;
6007;SDS011;3032;49.484;11.112;2023-04-15T02:47:24;10.83;;;9.27;;
6007;SDS011;3032;49.484;11.112;2023-04-15T02:49:50;8.27;;;7.47;;
6007;SDS011;3032;49.484;11.112;2023-04-15T02:52:16;11.63;;;8.48;;
6007;SDS011;3032;49.484;11.112;2023-04-15T02:54:41;9.30;;;8.50;;
6007;SDS011;3032;49.484;11.112;2023-04-15T02:57:07;12.47;;;8.80;;
6007;SDS011;3032;49.484;11.112;2023-04-15T02:59:33;9.10;;;8.20;;
6007;SDS011;3032;49.484;11.112;2023-04-15T03:01:58;9.40;;;8.37;;
6007;SDS011;3032;49.484;11.112;2023-04-15T03:04:27;12.07;;;9.02;;
6007;SDS011;3032;49.484;11.112;2023-04-15T03:06:54;9.48;;;8.25;;
6007;SDS011;3032;49.484;11.112;2023-04-15T03:09:20;10.40;;;8.18;;
6007;SDS011;3032;49.484;11.112;2023-04-15T03:11:46;9.27;;;8.37;;
6007;SDS011;3032;49.484;11.112;2023-04-15T03:14:11;11.27;;;8.40;;
6007;SDS011;3032;49.484;11.112;2023-04-15T03:16:37;10.53;;;7.90;;
6007;SDS011;3032;49.484;11.112;2023-04-15T03:19:02;10.70;;;8.30;;
6007;SDS011;3032;49.484;11.112;2023-04-15T03:21:28;8.43;;;7.60;;
6007;SDS011;3032;49.484;11.112;2023-04-15T03:23:53;8.67;;;7.50;;
6007;SDS011;3032;49.484;11.112;2023-04-15T03:26:38;18.58;;;8.07;;
6007;SDS011;3032;49.484;11.112;2023-04-15T03:29:04;8.95;;;8.05;;
6007;SDS011;3032;49.484;11.112;2023-04-15T03:31:30;11.15;;;8.40;;
6007;SDS011;3032;49.484;11.112;2023-04-15T03:33:55;9.63;;;8.63;;
6007;SDS011;3032;49.484;11.112;2023-04-15T03:36:21;9.00;;;7.70;;
6007;SDS011;3032;49.484;11.112;2023-04-15T03:38:47;10.47;;;8.50;;
6007;SDS011;3032;49.484;11.112;2023-04-15T03:41:13;9.30;;;8.50;;
6007;SDS011;3032;49.484;11.112;2023-04-15T03:43:38;9.30;;;8.40;;
6007;SDS011;3032;49.484;11.112;2023-04-15T03:46:04;9.70;;;8.50;;
6007;SDS011;3032;49.484;11.112;2023-04-15T03:48:30;9.60;;;8.70;;
6007;SDS011;3032;49.484;11.112;2023-04-15T03:50:55;11.57;;;9.10;;
6007;SDS011;3032;49.484;11.112;2023-04-15T03:53:21;10.03;;;9.03;;
6007;SDS011;3032;49.484;11.112;2023-04-15T03:55:47;11.45;;;9.00;;
6007;SDS011;3032;49.484;11.112;2023-04-15T03:58:12;9.70;;;8.70;;
6007;SDS011;3032;49.484;11.112;2023-04-15T04:00:38;10.50;;;9.50;;
6007;SDS011;3032;49.484;11.112;2023-04-15T04:03:05;10.02;;;8.95;;
6007;SDS011;3032;49.484;11.112;2023-04-15T04:05:30;9.70;;;8.70;;
6007;SDS011;3032;49.484;11.112;2023-04-15T04:07:56;10.30;;;9.30;;
6007;SDS011;3032;49.484;11.112;2023-04-15T04:10:22;9.93;;;8.30;;
6007;SDS011;3032;49.484;11.112;2023-04-15T04:12:47;10.27;;;9.27;;
6007;SDS011;3032;49.484;11.112;2023-04-15T04:15:13;10.50;;;9.17;;
6007;SDS011;3032;49.484;11.112;2023-04-15T04:17:38;11.23;;;8.93;;
6007;SDS011;3032;49.484;11.112;2023-04-15T04:20:04;10.10;;;9.10;;
6007;SDS011;3032;49.484;11.112;2023-04-15T04:22:30;9.30;;;8.23;;
6007;SDS011;3032;49.484;11.112;2023-04-15T04:24:56;9.13;;;8.13;;
6007;SDS011;3032;49.484;11.112;2023-04-15T04:27:23;9.95;;;8.95;;
6007;SDS011;3032;49.484;11.112;2023-04-15T04:29:49;12.13;;;9.50;;
6007;SDS011;3032;49.484;11.112;2023-04-15T04:32:15;9.50;;;8.50;;
6007;SDS011;3032;49.484;11.112;2023-04-15T04:34:40;8.40;;;7.60;;
6007;SDS011;3032;49.484;11.112;2023-04-15T04:37:06;10.63;;;8.90;;
6007;SDS011;3032;49.484;11.112;2023-04-15T04:39:31;9.90;;;8.87;;
6007;SDS011;3032;49.484;11.112;2023-04-15T04:41:57;9.80;;;8.50;;
6007;SDS011;3032;49.484;11.112;2023-04-15T04:44:22;12.07;;;8.23;;
6007;SDS011;3032;49.484;11.112;2023-04-15T04:46:48;10.73;;;8.40;;
6007;SDS011;3032;49.484;11.112;2023-04-15T04:49:14;10.43;;;8.37;;
6007;SDS011;3032;49.484;11.112;2023-04-15T04:51:39;8.80;;;7.93;;
6007;SDS011;3032;49.484;11.112;2023-04-15T04:54:05;12.00;;;8.50;;
6007;SDS011;3032;49.484;11.112;2023-04-15T04:56:30;9.07;;;8.17;;
6007;SDS011;3032;49.484;11.112;2023-04-15T04:58:58;8.93;;;7.85;;
6007;SDS011;3032;49.484;11.112;2023-04-15T05:01:23;9.37;;;8.20;;
6007;SDS011;3032;49.484;11.112;2023-04-15T05:03:50;11.07;;;7.65;;
6007;SDS011;3032;49.484;11.112;2023-04-15T05:06:16;9.30;;;8.27;;
6007;SDS011;3032;49.484;11.112;2023-04-15T05:08:41;9.73;;;7.83;;
6007;SDS011;3032;49.484;11.112;2023-04-15T05:11:07;12.90;;;7.70;;
6007;SDS011;3032;49.484;11.112;2023-04-15T05:13:33;8.50;;;7.50;;
6007;SDS011;3032;49.484;11.112;2023-04-15T05:15:58;10.00;;;7.80;;
6007;SDS011;3032;49.484;11.112;2023-04-15T05:18:24;9.63;;;8.23;;
6007;SDS011;3032;49.484;11.112;2023-04-15T05:20:49;9.93;;;8.00;;
6007;SDS011;3032;49.484;11.112;2023-04-15T05:23:15;8.63;;;7.70;;
6007;SDS011;3032;49.484;11.112;2023-04-15T05:25:41;9.38;;;7.60;;
6007;SDS011;3032;49.484;11.112;2023-04-15T05:28:07;10.30;;;7.90;;
6007;SDS011;3032;49.484;11.112;2023-04-15T05:30:32;7.17;;;6.53;;
6007;SDS011;3032;49.484;11.112;2023-04-15T05:32:58;10.83;;;8.23;;
6007;SDS011;3032;49.484;11.112;2023-04-15T05:35:24;10.73;;;7.70;;
6007;SDS011;3032;49.484;11.112;2023-04-15T05:37:49;8.83;;;7.93;;
6007;SDS011;3032;49.484;11.112;2023-04-15T05:40:15;9.43;;;8.20;;
6007;SDS011;3032;49.484;11.112;2023-04-15T05:42:41;9.80;;;7.90;;
6007;SDS011;3032;49.484;11.112;2023-04-15T05:45:06;11.40;;;8.50;;
6007;SDS011;3032;49.484;11.112;2023-04-15T05:47:34;8.82;;;7.78;;
6007;SDS011;3032;49.484;11.112;2023-04-15T05:50:00;7.72;;;7.03;;
6007;SDS011;3032;49.484;11.112;2023-04-15T05:52:26;8.23;;;6.97;;
6007;SDS011;3032;49.484;11.112;2023-04-15T05:54:51;7.20;;;6.60;;
6007;SDS011;3032;49.484;11.112;2023-04-15T05:57:17;8.47;;;6.70;;
6007;SDS011;3032;49.484;11.112;2023-04-15T05:59:42;8.10;;;7.20;;
6007;SDS011;3032;49.484;11.112;2023-04-15T06:02:08;8.77;;;8.00;;
6007;SDS011;3032;49.484;11.112;2023-04-15T06:04:34;9.20;;;8.30;;
6007;SDS011;3032;49.484;11.112;2023-04-15T06:07:00;13.85;;;8.60;;
6007;SDS011;3032;49.484;11.112;2023-04-15T06:09:26;8.90;;;7.73;;
6007;SDS011;3032;49.484;11.112;2023-04-15T06:11:53;11.23;;;8.15;;
6007;SDS011;3032;49.484;11.112;2023-04-15T06:14:18;10.07;;;8.00;;
6007;SDS011;3032;49.484;11.112;2023-04-15T06:16:44;8.93;;;8.03;;
6007;SDS011;3032;49.484;11.112;2023-04-15T06:19:10;11.03;;;8.60;;
6007;SDS011;3032;49.484;11.112;2023-04-15T06:21:36;8.00;;;6.97;;
6007;SDS011;3032;49.484;11.112;2023-04-15T06:24:02;8.77;;;7.17;;
6007;SDS011;3032;49.484;11.112;2023-04-15T06:26:28;8.00;;;7.20;;
6007;SDS011;3032;49.484;11.112;2023-04-15T06:28:53;7.97;;;7.00;;
6007;SDS011;3032;49.484;11.112;2023-04-15T06:31:19;8.90;;;7.97;;
6007;SDS011;3032;49.484;11.112;2023-04-15T06:33:45;8.80;;;7.43;;
6007;SDS011;3032;49.484;11.112;2023-04-15T06:36:11;7.57;;;6.80;;
6007;SDS011;3032;49.484;11.112;2023-04-15T06:38:36;7.97;;;7.17;;
6007;SDS011;3032;49.484;11.112;2023-04-15T06:41:02;8.33;;;6.80;;
6007;SDS011;3032;49.484;11.112;2023-04-15T06:43:29;10.00;;;7.70;;
6007;SDS011;3032;49.484;11.112;2023-04-15T06:45:54;10.03;;;8.17;;
6007;SDS011;3032;49.484;11.112;2023-04-15T06:48:20;10.33;;;7.77;;
6007;SDS011;3032;49.484;11.112;2023-04-15T06:50:47;9.82;;;8.63;;
6007;SDS011;3032;49.484;11.112;2023-04-15T06:53:13;9.13;;;8.23;;
6007;SDS011;3032;49.484;11.112;2023-04-15T06:55:39;9.82;;;8.15;;
6007;SDS011;3032;49.484;11.112;2023-04-15T06:58:05;10.27;;;8.90;;
6007;SDS011;3032;49.484;11.112;2023-04-15T07:00:32;9.30;;;8.40;;
6007;SDS011;3032;49.484;11.112;2023-04-15T07:02:58;11.75;;;9.25;;
6007;SDS011;3032;49.484;11.112;2023-04-15T07:05:27;9.25;;;7.65;;
6007;SDS011;3032;49.484;11.112;2023-04-15T07:07:53;8.40;;;7.60;;
6007;SDS011;3032;49.484;11.112;2023-04-15T07:10:19;8.00;;;7.20;;
6007;SDS011;3032;49.484;11.112;2023-04-15T07:12:45;8.73;;;7.73;;
6007;SDS011;3032;49.484;11.112;2023-04-15T07:15:11;9.45;;;7.25;;
6007;SDS011;3032;49.484;11.112;2023-04-15T07:17:37;8.17;;;7.33;;
6007;SDS011;3032;49.484;11.112;2023-04-15T07:20:03;8.00;;;6.37;;
6007;SDS011;3032;49.484;11.112;2023-04-15T07:22:29;7.38;;;6.68;;
6007;SDS011;3032;49.484;11.112;2023-04-15T07:24:55;7.90;;;7.10;;
6007;SDS011;3032;49.484;11.112;2023-04-15T07:27:20;9.13;;;7.63;;
6007;SDS011;3032;49.484;11.112;2023-04-15T07:29:46;8.13;;;7.43;;
6007;SDS011;3032;49.484;11.112;2023-04-15T07:32:12;7.55;;;6.95;;
6007;SDS011;3032;49.484;11.112;2023-04-15T07:34:37;9.40;;;8.00;;
6007;SDS011;3032;49.484;11.112;2023-04-15T07:37:03;9.80;;;8.30;;
6007;SDS011;3032;49.484;11.112;2023-04-15T07:39:28;8.70;;;7.90;;
6007;SDS011;3032;49.484;11.112;2023-04-15T07:41:55;7.53;;;6.75;;
6007;SDS011;3032;49.484;11.112;2023-04-15T07:44:20;8.50;;;7.70;;
6007;SDS011;3032;49.484;11.112;2023-04-15T07:46:46;7.57;;;6.87;;
6007;SDS011;3032;49.484;11.112;2023-04-15T07:49:12;7.33;;;6.73;;
6007;SDS011;3032;49.484;11.112;2023-04-15T07:51:37;6.63;;;6.13;;
6007;SDS011;3032;49.484;11.112;2023-04-15T07:54:03;5.93;;;5.50;;
6007;SDS011;3032;49.484;11.112;2023-04-15T07:56:28;6.73;;;6.03;;
6007;SDS011;3032;49.484;11.112;2023-04-15T07:58:54;6.20;;;5.70;;
6007;SDS011;3032;49.484;11.112;2023-04-15T08:01:19;6.57;;;5.00;;
6007;SDS011;3032;49.484;11.112;2023-04-15T08:03:45;7.43;;;5.67;;
6007;SDS011;3032;49.484;11.112;2023-04-15T08:06:11;5.20;;;4.80;;
6007;SDS011;3032;49.484;11.112;2023-04-15T08:08:36;5.40;;;4.90;;
6007;SDS011;3032;49.484;11.112;2023-04-15T08:11:02;7.73;;;4.40;;
6007;SDS011;3032;49.484;11.112;2023-04-15T08:13:28;4.00;;;3.70;;
6007;SDS011;3032;49.484;11.112;2023-04-15T08:16:13;4.40;;;4.00;;
6007;SDS011;3032;49.484;11.112;2023-04-15T08:18:43;4.35;;;3.95;;
6007;SDS011;3032;49.484;11.112;2023-04-15T08:21:09;4.35;;;3.38;;
6007;SDS011;3032;49.484;11.112;2023-04-15T08:23:35;4.78;;;4.38;;
6007;SDS011;3032;49.484;11.112;2023-04-15T08:26:01;5.55;;;4.00;;
6007;SDS011;3032;49.484;11.112;2023-04-15T08:28:27;7.10;;;4.40;;
6007;SDS011;3032;49.484;11.112;2023-04-15T08:30:53;4.80;;;4.40;;
6007;SDS011;3032;49.484;11.112;2023-04-15T08:33:18;5.50;;;4.70;;
6007;SDS011;3032;49.484;11.112;2023-04-15T08:35:45;5.33;;;4.70;;
6007;SDS011;3032;49.484;11.112;2023-04-15T08:38:11;3.85;;;3.60;;
6007;SDS011;3032;49.484;11.112;2023-04-15T08:40:45;3.97;;;3.67;;
6007;SDS011;3032;49.484;11.112;2023-04-15T08:43:20;3.60;;;3.30;;
6007;SDS011;3032;49.484;11.112;2023-04-15T08:45:51;3.20;;;2.90;;
6007;SDS011;3032;49.484;11.112;2023-04-15T08:48:17;3.25;;;2.95;;
6007;SDS011;3032;49.484;11.112;2023-04-15T08:50:44;3.42;;;3.10;;
6007;SDS011;3032;49.484;11.112;2023-04-15T08:53:10;3.15;;;2.95;;
6007;SDS011;3032;49.484;11.112;2023-04-15T08:55:43;3.30;;;3.00;;
6007;SDS011;3032;49.484;11.112;2023-04-15T08:58:10;3.70;;;3.40;;
6007;SDS011;3032;49.484;11.112;2023-04-15T09:00:40;3.70;;;3.40;;
6007;SDS011;3032;49.484;11.112;2023-04-15T09:03:06;2.83;;;2.70;;
6007;SDS011;3032;49.484;11.112;2023-04-15T09:05:34;3.35;;;3.15;;
6007;SDS011;3032;49.484;11.112;2023-04-15T09:08:00;3.15;;;2.95;;
6007;SDS011;3032;49.484;11.112;2023-04-15T09:10:27;3.38;;;3.08;;
6007;SDS011;3032;49.484;11.112;2023-04-15T09:12:53;3.40;;;3.20;;
6007;SDS011;3032;49.484;11.112;2023-04-15T09:15:19;4.90;;;4.18;;
6007;SDS011;3032;49.484;11.112;2023-04-15T09:17:45;4.00;;;3.60;;
6007;SDS011;3032;49.484;11.112;2023-04-15T09:20:13;4.22;;;3.80;;
6007;SDS011;3032;49.484;11.112;2023-04-15T09:22:40;3.97;;;3.55;;
6007;SDS011;3032;49.484;11.112;2023-04-15T09:25:24;4.22;;;3.85;;
6007;SDS011;3032;49.484;11.112;2023-04-15T09:27:53;3.15;;;2.88;;
6007;SDS011;3032;49.484;11.112;2023-04-15T09:30:23;3.88;;;3.58;;
6007;SDS011;3032;49.484;11.112;2023-04-15T09:32:52;3.55;;;3.35;;
6007;SDS011;3032;49.484;11.112;2023-04-15T09:35:19;6.95;;;4.22;;
6007;SDS011;3032;49.484;11.112;2023-04-15T09:37:46;5.22;;;4.15;;
6007;SDS011;3032;49.484;11.112;2023-04-15T09:40:12;4.47;;;4.07;;
6007;SDS011;3032;49.484;11.112;2023-04-15T09:42:54;4.10;;;3.70;;
6007;SDS011;3032;49.484;11.112;2023-04-15T09:45:20;4.82;;;4.40;;
6007;SDS011;3032;49.484;11.112;2023-04-15T09:47:46;3.30;;;3.10;;
6007;SDS011;3032;49.484;11.112;2023-04-15T09:50:12;3.50;;;3.30;;
6007;SDS011;3032;49.484;11.112;2023-04-15T09:52:41;4.38;;;3.20;;
6007;SDS011;3032;49.484;11.112;2023-04-15T09:55:08;4.18;;;3.78;;
6007;SDS011;3032;49.484;11.112;2023-04-15T09:57:35;3.83;;;3.55;;
6007;SDS011;3032;49.484;11.112;2023-04-15T10:00:02;3.33;;;3.03;;
6007;SDS011;3032;49.484;11.112;2023-04-15T10:02:32;3.40;;;3.20;;
6007;SDS011;3032;49.484;11.112;2023-04-15T10:04:58;3.60;;;3.30;;
6007;SDS011;3032;49.484;11.112;2023-04-15T10:07:25;3.53;;;3.33;;
6007;SDS011;3032;49.484;11.112;2023-04-15T10:09:51;3.95;;;3.75;;
6007;SDS011;3032;49.484;11.112;2023-04-15T10:12:17;3.00;;;2.80;;
6007;SDS011;3032;49.484;11.112;2023-04-15T10:14:44;2.90;;;2.70;;
6007;SDS011;3032;49.484;11.112;2023-04-15T10:17:16;4.18;;;3.05;;
6007;SDS011;3032;49.484;11.112;2023-04-15T10:19:42;3.63;;;3.33;;
6007;SDS011;3032;49.484;11.112;2023-04-15T10:22:08;3.38;;;3.08;;
6007;SDS011;3032;49.484;11.112;2023-04-15T10:24:34;3.67;;;3.37;;
6007;SDS011;3032;49.484;11.112;2023-04-15T10:27:02;3.65;;;3.35;;
6007;SDS011;3032;49.484;11.112;2023-04-15T10:29:29;4.72;;;3.25;;
6007;SDS011;3032;49.484;11.112;2023-04-15T10:31:55;3.53;;;3.23;;
6007;SDS011;3032;49.484;11.112;2023-04-15T10:34:21;4.85;;;3.00;;
6007;SDS011;3032;49.484;11.112;2023-04-15T10:36:48;3.83;;;3.53;;
6007;SDS011;3032;49.484;11.112;2023-04-15T10:42:05;3.85;;;3.55;;
6007;SDS011;3032;49.484;11.112;2023-04-15T10:44:38;3.03;;;2.72;;
6007;SDS011;3032;49.484;11.112;2023-04-15T10:47:14;3.70;;;2.78;;
6007;SDS011;3032;49.484;11.112;2023-04-15T10:49:50;2.50;;;2.40;;
6007;SDS011;3032;49.484;11.112;2023-04-15T10:52:24;2.85;;;2.65;;
6007;SDS011;3032;49.484;11.112;2023-04-15T10:55:01;2.30;;;2.20;;
6007;SDS011;3032;49.484;11.112;2023-04-15T10:57:27;2.20;;;2.10;;
6007;SDS011;3032;49.484;11.112;2023-04-15T11:00:01;2.00;;;1.80;;
6007;SDS011;3032;49.484;11.112;2023-04-15T11:02:38;2.20;;;2.10;;
6007;SDS011;3032;49.484;11.112;2023-04-15T11:05:05;2.03;;;1.92;;
6007;SDS011;3032;49.484;11.112;2023-04-15T11:12:38;1.90;;;1.80;;
6007;SDS011;3032;49.484;11.112;2023-04-15T11:18:10;2.33;;;2.22;;
6007;SDS011;3032;49.484;11.112;2023-04-15T11:20:36;2.55;;;2.45;;
6007;SDS011;3032;49.484;11.112;2023-04-15T11:23:02;1.70;;;1.70;;
6007;SDS011;3032;49.484;11.112;2023-04-15T11:25:29;1.92;;;1.83;;
6007;SDS011;3032;49.484;11.112;2023-04-15T11:27:59;2.00;;;1.90;;
6007;SDS011;3032;49.484;11.112;2023-04-15T11:30:27;1.95;;;1.85;;
6007;SDS011;3032;49.484;11.112;2023-04-15T11:32:57;1.55;;;1.45;;
6007;SDS011;3032;49.484;11.112;2023-04-15T11:35:24;1.50;;;1.50;;
6007;SDS011;3032;49.484;11.112;2023-04-15T11:37:50;2.03;;;1.93;;
6007;SDS011;3032;49.484;11.112;2023-04-15T11:40:16;1.95;;;1.85;;
6007;SDS011;3032;49.484;11.112;2023-04-15T11:43:02;1.98;;;1.88;;
6007;SDS011;3032;49.484;11.112;2023-04-15T11:45:35;1.83;;;1.70;;
6007;SDS011;3032;49.484;11.112;2023-04-15T11:48:08;1.92;;;1.83;;
6007;SDS011;3032;49.484;11.112;2023-04-15T11:50:36;1.95;;;1.67;;
6007;SDS011;3032;49.484;11.112;2023-04-15T11:53:06;1.85;;;1.75;;
6007;SDS011;3032;49.484;11.112;2023-04-15T12:00:52;1.80;;;1.80;;
6007;SDS011;3032;49.484;11.112;2023-04-15T12:03:25;1.45;;;1.35;;
6007;SDS011;3032;49.484;11.112;2023-04-15T12:06:05;1.30;;;1.30;;
6007;SDS011;3032;49.484;11.112;2023-04-15T12:13:52;1.33;;;1.33;;
6007;SDS011;3032;49.484;11.112;2023-04-15T12:16:19;1.30;;;1.30;;
6007;SDS011;3032;49.484;11.112;2023-04-15T12:18:46;1.63;;;1.52;;
6007;SDS011;3032;49.484;11.112;2023-04-15T12:21:17;2.20;;;1.50;;
6007;SDS011;3032;49.484;11.112;2023-04-15T12:23:50;1.40;;;1.40;;
6007;SDS011;3032;49.484;11.112;2023-04-15T12:26:17;1.40;;;1.40;;
6007;SDS011;3032;49.484;11.112;2023-04-15T12:28:52;1.60;;;1.60;;
6007;SDS011;3032;49.484;11.112;2023-04-15T12:31:36;1.58;;;1.48;;
6007;SDS011;3032;49.484;11.112;2023-04-15T12:34:27;1.55;;;1.55;;
6007;SDS011;3032;49.484;11.112;2023-04-15T12:36:58;1.13;;;1.13;;
6007;SDS011;3032;49.484;11.112;2023-04-15T12:39:26;1.23;;;1.23;;
6007;SDS011;3032;49.484;11.112;2023-04-15T12:42:03;1.17;;;1.17;;
6007;SDS011;3032;49.484;11.112;2023-04-15T12:44:30;1.30;;;1.30;;
6007;SDS011;3032;49.484;11.112;2023-04-15T12:46:57;1.20;;;1.20;;
6007;SDS011;3032;49.484;11.112;2023-04-15T12:49:23;1.00;;;1.00;;
6007;SDS011;3032;49.484;11.112;2023-04-15T12:51:50;1.47;;;1.47;;
6007;SDS011;3032;49.484;11.112;2023-04-15T12:54:17;1.58;;;1.48;;
6007;SDS011;3032;49.484;11.112;2023-04-15T12:56:43;1.40;;;1.30;;
6007;SDS011;3032;49.484;11.112;2023-04-15T12:59:10;1.70;;;1.25;;
6007;SDS011;3032;49.484;11.112;2023-04-15T13:01:36;1.30;;;1.20;;
6007;SDS011;3032;49.484;11.112;2023-04-15T13:04:03;0.80;;;0.80;;
6007;SDS011;3032;49.484;11.112;2023-04-15T13:06:28;1.17;;;1.07;;
6007;SDS011;3032;49.484;11.112;2023-04-15T13:08:54;1.00;;;1.00;;
6007;SDS011;3032;49.484;11.112;2023-04-15T13:11:21;1.00;;;1.00;;
6007;SDS011;3032;49.484;11.112;2023-04-15T13:13:47;1.08;;;1.08;;
6007;SDS011;3032;49.484;11.112;2023-04-15T13:16:12;1.00;;;1.00;;
6007;SDS011;3032;49.484;11.112;2023-04-15T13:18:38;1.00;;;1.00;;
6007;SDS011;3032;49.484;11.112;2023-04-15T13:21:04;1.13;;;1.13;;
6007;SDS011;3032;49.484;11.112;2023-04-15T13:23:31;1.27;;;1.27;;
6007;SDS011;3032;49.484;11.112;2023-04-15T13:25:57;0.90;;;0.90;;
6007;SDS011;3032;49.484;11.112;2023-04-15T13:28:23;1.17;;;1.10;;
6007;SDS011;3032;49.484;11.112;2023-04-15T13:30:48;1.20;;;1.10;;
6007;SDS011;3032;49.484;11.112;2023-04-15T13:33:15;1.97;;;1.00;;
6007;SDS011;3032;49.484;11.112;2023-04-15T13:35:41;1.00;;;1.00;;
6007;SDS011;3032;49.484;11.112;2023-04-15T13:38:06;0.90;;;0.90;;
6007;SDS011;3032;49.484;11.112;2023-04-15T13:40:32;1.20;;;1.20;;
6007;SDS011;3032;49.484;11.112;2023-04-15T13:42:57;1.00;;;1.00;;
6007;SDS011;3032;49.484;11.112;2023-04-15T13:45:23;1.40;;;1.40;;
6007;SDS011;3032;49.484;11.112;2023-04-15T13:47:49;1.30;;;1.20;;
6007;SDS011;3032;49.484;11.112;2023-04-15T13:50:15;1.00;;;1.00;;
6007;SDS011;3032;49.484;11.112;2023-04-15T13:52:41;1.27;;;1.27;;
6007;SDS011;3032;49.484;11.112;2023-04-15T13:55:06;1.00;;;1.00;;
6007;SDS011;3032;49.484;11.112;2023-04-15T13:57:32;0.98;;;0.98;;
6007;SDS011;3032;49.484;11.112;2023-04-15T13:59:58;1.30;;;1.27;;
6007;SDS011;3032;49.484;11.112;2023-04-15T14:02:23;1.20;;;1.20;;
6007;SDS011;3032;49.484;11.112;2023-04-15T14:04:49;1.57;;;1.23;;
6007;SDS011;3032;49.484;11.112;2023-04-15T14:07:15;1.70;;;1.67;;
6007;SDS011;3032;49.484;11.112;2023-04-15T14:09:42;1.30;;;1.30;;
6007;SDS011;3032;49.484;11.112;2023-04-15T14:12:08;1.55;;;1.55;;
6007;SDS011;3032;49.484;11.112;2023-04-15T14:14:35;1.75;;;1.65;;
6007;SDS011;3032;49.484;11.112;2023-04-15T14:17:01;1.63;;;1.60;;
6007;SDS011;3032;49.484;11.112;2023-04-15T14:19:28;2.30;;;2.13;;
6007;SDS011;3032;49.484;11.112;2023-04-15T14:21:55;1.85;;;1.75;;
6007;SDS011;3032;49.484;11.112;2023-04-15T14:24:20;1.67;;;1.57;;
6007;SDS011;3032;49.484;11.112;2023-04-15T14:26:46;1.40;;;1.40;;
6007;SDS011;3032;49.484;11.112;2023-04-15T14:29:11;1.20;;;1.20;;
6007;SDS011;3032;49.484;11.112;2023-04-15T14:31:37;1.37;;;1.37;;
6007;SDS011;3032;49.484;11.112;2023-04-15T14:34:03;1.73;;;1.63;;
6007;SDS011;3032;49.484;11.112;2023-04-15T14:36:29;2.08;;;1.92;;
6007;SDS011;3032;49.484;11.112;2023-04-15T14:38:56;2.00;;;1.90;;
6007;SDS011;3032;49.484;11.112;2023-04-15T14:41:22;1.77;;;1.67;;
6007;SDS011;3032;49.484;11.112;2023-04-15T14:43:48;1.70;;;1.60;;
6007;SDS011;3032;49.484;11.112;2023-04-15T14:46:13;1.77;;;1.67;;
6007;SDS011;3032;49.484;11.112;2023-04-15T14:48:39;1.87;;;1.77;;
6007;SDS011;3032;49.484;11.112;2023-04-15T14:51:05;2.20;;;2.10;;
6007;SDS011;3032;49.484;11.112;2023-04-15T14:53:30;2.00;;;1.90;;
6007;SDS011;3032;49.484;11.112;2023-04-15T14:55:56;2.17;;;2.07;;
6007;SDS011;3032;49.484;11.112;2023-04-15T14:58:22;1.70;;;1.60;;
6007;SDS011;3032;49.484;11.112;2023-04-15T15:00:47;1.80;;;1.70;;
6007;SDS011;3032;49.484;11.112;2023-04-15T15:03:13;1.40;;;1.40;;
6007;SDS011;3032;49.484;11.112;2023-04-15T15:05:43;2.53;;;2.33;;
6007;SDS011;3032;49.484;11.112;2023-04-15T15:08:10;2.63;;;2.53;;
6007;SDS011;3032;49.484;11.112;2023-04-15T15:10:36;2.38;;;2.15;;
6007;SDS011;3032;49.484;11.112;2023-04-15T15:13:03;2.00;;;1.90;;
6007;SDS011;3032;49.484;11.112;2023-04-15T15:15:30;2.25;;;2.15;;
6007;SDS011;3032;49.484;11.112;2023-04-15T15:17:56;1.67;;;1.65;;